Historyczne dane pomiarowe

Dodano dane terminowe – wersja testowa.

Dane z okresu 1951-2019

Wersja bazy: 1.34 [2019-03-16, lista zmian], aktualizacja planowana na 2019-04-15

Dane meteo z obszaru Polski uzyskane na podstawie danych udostępnionych przez Instytut Meteorologii i Gospodarki Wodnej – Państwowy Instytut Badawczy.

 

Wybierz Datę:    

       

TemperaturaWilgotnośćWiatrCiśnienieOpadyŚniegCzas trwania zjawisk
 Stacja t tx tn tng RH VA  wxwx mslp ppp RRR   cm mm wxwxwxwxwxwxwx
1956-11-09 -0.4 1.7 -2.9- 83.0- 5.7 1.7---- 0.0------------
1956-11-08 -0.6 5.9 -5.5- 80.3- 2.3 0.7---- 0.0------------
1956-11-07 0.1 3.8 -3.1- 77.3- 5.7 0.7---- 0.0------------
1956-11-06 2.6 5.4 1.1- 67.5- 5.0 4.0---- 0.0------------
1956-11-05 6.1 8.7 2.8- 66.0- 7.0 10.0---- 2.6------------
1956-11-04 3.1 4.8 -0.4- 77.0- 8.0 1.3---- 0.8------------
1956-11-03 1.2 5.9 -0.9- 85.3- 5.7 0.7---- 0.0------------
1956-11-02 1.7 6.5 -0.3- 85.3- 6.3 0.7---- 0.0------------
1956-11-01 1.9 2.6 -1.0- 95.0- 8.0 2.0---- 2.1------------
1956-10-31 -1.3 2.1 -7.3- 90.5- 5.0 0.7---- 0.0------------
1956-10-30 -0.5 1.1 -1.6- 97.5- 5.3 4.7---- 0.0------------
1956-10-29 2.3 6.5 0.0- 89.0- 8.0 5.0---- 0.3------------
1956-10-28 7.0 8.4 5.5- 92.8- 8.0 6.7---- 0.0------------
1956-10-27 7.6 9.3 1.7- 89.0- 8.0 11.3---- 6.1------------
1956-10-26 5.8 9.8 3.6- 87.0- 5.0 1.0---- 0.0------------
1956-10-25 9.2 13.9 5.9- 86.8- 5.3 1.3---- 0.2------------
1956-10-24 12.0 13.5 9.8- 93.5- 8.0 1.0---- 2.6------------
1956-10-23 10.9 12.3 9.9- 79.5- 8.0 3.7---- 0.1------------
1956-10-22 12.1 12.9 11.3- 80.3- 8.0 4.7---- 0.0------------
1956-10-21 12.6 14.1 9.7- 86.0- 7.7 4.7---- 0.0------------
1956-10-20 10.0 11.9 5.0- 90.5- 8.0 0.0---- 0.0------------
1956-10-19 10.4 13.1 8.8- 90.0- 6.7 2.7---- 0.2------------
1956-10-18 11.7 14.1 9.8- 97.0- 8.0 0.0---- 10.1------------
1956-10-17 10.1 16.5 0.0- 67.8- 1.7 2.3---- 0.0------------
1956-10-16 5.2 14.6 -1.4- 84.3- 1.7 0.3---- 0.0------------
1956-10-15 3.9 12.1 -0.8- 86.8- 0.0 0.7---- 0.0------------
1956-10-14 8.9 12.1 7.0- 69.3- 1.0 4.0---- 0.0------------
1956-10-13 10.3 12.6 9.1- 85.3- 5.0 15.7---- 14.4------------
1956-10-12 10.7 12.1 9.7- 88.8- 7.7 12.0---- 0.0------------
1956-10-11 11.5 13.0 6.5- 85.3- 2.7 3.3---- 0.0------------
1956-10-10 6.3 10.0 -1.3- 76.5- 5.7 1.0---- 0.7------------
1956-10-09 7.6 12.2 4.9- 87.3- 6.7 0.7---- 0.0------------
1956-10-08 5.9 9.0 3.5- 87.0- 7.7 1.3---- 8.8------------
1956-10-07 7.1 9.4 5.0- 86.5- 7.3 5.7---- 13.6------------
1956-10-06 7.1 10.1 3.5- 91.5- 5.0 0.3---- 2.4------------
1956-10-05 7.2 12.1 4.7- 91.3- 5.0 1.3---- 1.9------------
1956-10-04 10.6 15.1 5.9- 89.0- 4.7 1.3---- 4.7------------
1956-10-03 10.4 14.3 7.3- 96.3- 5.3 5.7---- 5.9------------
1956-10-02 14.2 19.3 7.4- 94.8- 7.7 4.0---- 19.8------------
1956-10-01 11.9 15.9 5.4- 97.0- 6.3 1.0---- 22.4------------
1956-09-30 12.0 18.7 9.3- 84.5- 2.3 2.7---- 0.5------------
1956-09-29 14.4 17.6 12.8- 78.5- 3.0 8.7---- 0.0------------
1956-09-28 15.4 19.1 13.5- 85.5- 5.3 4.3---- 2.8------------
1956-09-27 14.6 20.0 10.1- 90.0- 3.3 0.3---- 2.6------------
1956-09-26 15.3 22.8 8.5- 74.0- 0.0 0.0---- 0.0------------
1956-09-25 12.1 20.1 2.3- 74.0- 0.0 1.0---- 0.0------------
1956-09-24 9.8 17.1 4.0- 65.8- 0.0 1.3---- 0.0------------
1956-09-23 11.9 17.9 7.2- 80.8- 3.0 2.3---- 0.0------------
1956-09-22 12.5 19.1 5.2- 85.0- 0.0 1.0---- 0.0------------
1956-09-21 10.6 19.0 1.5- 86.0- 1.7 0.0---- 0.0------------
1956-09-20 9.2 16.5 4.1- 89.5- 3.7 0.3---- 0.0------------
1956-09-19 8.4 17.3 0.3- 88.0- 0.7 0.0---- 0.0------------
1956-09-18 10.0 15.3 5.0- 83.3- 3.3 2.3---- 0.0------------
1956-09-17 8.2 14.8 4.1- 83.8- 4.0 2.7---- 2.4------------
1956-09-16 10.0 14.5 8.0- 89.0- 7.3 3.0---- 8.7------------
1956-09-15 11.2 15.6 8.8- 84.5- 4.7 1.7---- 0.0------------
1956-09-14 10.4 17.5 2.9- 87.3- 2.7 0.3---- 0.7------------
1956-09-13 9.4 12.8 8.0- 92.0- 5.3 1.0---- 7.1------------
1956-09-12 11.3 15.5 9.2- 87.5- 4.0 4.7---- 11.9------------
1956-09-11 15.2 19.3 10.6- 92.8- 6.7 0.0---- 11.2------------
175.0 ms

 

Źródłem pochodzenia danych jest Instytut Meteorologii i Gospodarki Wodnej – Państwowy Instytut Badawczy. Dane Instytutu Meteorologii i Gospodarki Wodnej – Państwowego Instytutu Badawczego zostały przetworzone.

Dane źródłowe można odnaleźć na stronie https://dane.imgw.pl